createdAt,value
2023-03-10T00:01:13.923Z,9.45
2023-03-10T00:03:42.655Z,9.48
2023-03-10T00:06:12.724Z,9.42
2023-03-10T00:08:41.246Z,9.40
2023-03-10T00:11:11.360Z,9.41
2023-03-10T00:13:39.706Z,9.36
2023-03-10T00:16:08.869Z,9.32
2023-03-10T00:18:37.155Z,9.33
2023-03-10T00:21:06.021Z,9.32
2023-03-10T00:23:37.270Z,9.30
2023-03-10T00:26:05.983Z,9.35
2023-03-10T00:28:35.648Z,9.36
2023-03-10T00:31:07.299Z,9.30
2023-03-10T00:33:39.391Z,9.24
2023-03-10T00:36:09.892Z,9.16
2023-03-10T00:38:39.706Z,9.16
2023-03-10T00:41:11.627Z,9.04
2023-03-10T00:43:41.993Z,9.00
2023-03-10T00:46:10.599Z,8.91
2023-03-10T00:48:39.819Z,8.95
2023-03-10T00:51:09.249Z,9.07
2023-03-10T00:53:39.343Z,9.06
2023-03-10T00:56:09.813Z,9.14
2023-03-10T00:58:39.114Z,9.16
2023-03-10T01:01:15.307Z,9.17
2023-03-10T01:03:43.768Z,9.19
2023-03-10T01:06:13.941Z,9.19
2023-03-10T01:08:42.245Z,9.22
2023-03-10T01:11:10.857Z,9.20
2023-03-10T01:13:40.994Z,9.22
2023-03-10T01:16:14.280Z,9.22
2023-03-10T01:18:45.145Z,9.27
2023-03-10T01:21:18.129Z,9.27
2023-03-10T01:23:46.564Z,9.27
2023-03-10T01:26:16.479Z,9.26
2023-03-10T01:28:46.935Z,9.30
2023-03-10T01:31:17.140Z,9.27
2023-03-10T01:33:46.652Z,9.26
2023-03-10T01:36:17.322Z,9.30
2023-03-10T01:38:48.854Z,9.25
2023-03-10T01:41:17.865Z,9.30
2023-03-10T01:43:48.775Z,9.30
2023-03-10T01:46:47.772Z,9.23
2023-03-10T01:49:45.117Z,9.18
2023-03-10T01:52:18.944Z,9.18
2023-03-10T01:54:51.200Z,9.20
2023-03-10T01:57:24.441Z,9.15
2023-03-10T01:59:55.733Z,9.18
2023-03-10T02:02:26.815Z,9.19
2023-03-10T02:04:56.612Z,9.29
2023-03-10T02:07:28.719Z,9.33
2023-03-10T02:09:57.920Z,9.38
2023-03-10T02:12:26.436Z,9.39
2023-03-10T02:14:55.394Z,9.44
2023-03-10T02:17:27.339Z,9.44
2023-03-10T02:20:26.688Z,9.45
2023-03-10T02:22:55.538Z,9.45
2023-03-10T02:25:35.654Z,9.45
2023-03-10T02:28:06.004Z,9.45
2023-03-10T02:30:37.100Z,9.47
2023-03-10T02:33:08.617Z,9.47
2023-03-10T02:35:37.302Z,9.50
2023-03-10T02:38:10.176Z,9.57
2023-03-10T02:40:41.671Z,9.55
2023-03-10T02:43:20.022Z,9.55
2023-03-10T02:45:52.631Z,9.52
2023-03-10T02:48:28.186Z,9.59
2023-03-10T02:50:58.631Z,9.59
2023-03-10T02:53:29.290Z,9.60
2023-03-10T02:55:58.720Z,9.57
2023-03-10T02:58:32.110Z,9.53
2023-03-10T03:01:01.990Z,9.55
2023-03-10T03:03:30.418Z,9.54
2023-03-10T03:05:58.926Z,9.55
2023-03-10T03:08:28.118Z,9.59
2023-03-10T03:10:56.804Z,9.54
2023-03-10T03:13:25.130Z,9.53
2023-03-10T03:15:54.784Z,9.49
2023-03-10T03:18:23.681Z,9.48
2023-03-10T03:20:52.636Z,9.47
2023-03-10T03:23:21.743Z,9.45
2023-03-10T03:25:51.386Z,9.46
2023-03-10T03:28:22.173Z,9.47
2023-03-10T03:30:55.131Z,9.40
2023-03-10T03:33:23.647Z,9.42
2023-03-10T03:35:52.176Z,9.39
2023-03-10T03:38:20.898Z,9.35
2023-03-10T03:40:49.585Z,9.31
2023-03-10T03:43:21.828Z,9.34
2023-03-10T03:45:50.281Z,9.33
2023-03-10T03:48:22.398Z,9.31
2023-03-10T03:50:52.268Z,9.34
2023-03-10T03:53:26.676Z,9.33
2023-03-10T03:55:55.617Z,9.33
2023-03-10T03:58:27.092Z,9.33
2023-03-10T04:00:55.390Z,9.36
2023-03-10T04:03:25.132Z,9.34
2023-03-10T04:05:53.639Z,9.31
2023-03-10T04:08:22.897Z,9.31
2023-03-10T04:10:52.900Z,9.27
2023-03-10T04:13:25.647Z,9.26
2023-03-10T04:15:57.692Z,9.27
2023-03-10T04:18:29.233Z,9.26
2023-03-10T04:20:58.337Z,9.24
2023-03-10T04:23:27.267Z,9.20
2023-03-10T04:25:56.020Z,9.18
2023-03-10T04:28:24.370Z,9.16
2023-03-10T04:30:53.079Z,9.17
2023-03-10T04:33:24.746Z,9.10
2023-03-10T04:35:54.730Z,9.06
2023-03-10T04:38:24.678Z,9.04
2023-03-10T04:40:55.530Z,9.01
2023-03-10T04:43:26.330Z,9.03
2023-03-10T04:45:54.805Z,9.01
2023-03-10T04:48:24.471Z,8.98
2023-03-10T04:50:58.009Z,8.98
2023-03-10T04:53:28.105Z,8.97
2023-03-10T04:55:57.400Z,8.97
2023-03-10T04:58:28.605Z,8.93
2023-03-10T05:01:03.217Z,8.93
2023-03-10T05:03:37.260Z,8.91
2023-03-10T05:06:15.532Z,8.93
2023-03-10T05:08:47.087Z,8.93
2023-03-10T05:11:16.531Z,8.87
2023-03-10T05:13:45.414Z,8.86
2023-03-10T05:16:15.546Z,8.86
2023-03-10T05:18:43.946Z,8.82
2023-03-10T05:21:14.331Z,8.81
2023-03-10T05:23:43.995Z,8.78
2023-03-10T05:26:14.861Z,8.77
2023-03-10T05:28:43.762Z,8.72
2023-03-10T05:31:15.752Z,8.75
2023-03-10T05:33:46.206Z,8.70
2023-03-10T05:36:17.024Z,8.74
2023-03-10T05:38:47.002Z,8.74
2023-03-10T05:41:17.169Z,8.74
2023-03-10T05:43:48.462Z,8.73
2023-03-10T05:46:18.531Z,8.73
2023-03-10T05:48:52.851Z,8.73
2023-03-10T05:51:22.532Z,8.76
2023-03-10T05:53:51.139Z,8.72
2023-03-10T05:56:25.484Z,8.67
2023-03-10T05:58:57.359Z,8.64
2023-03-10T06:01:30.869Z,8.64
2023-03-10T06:03:59.215Z,8.67
2023-03-10T06:06:29.053Z,8.72
2023-03-10T06:08:57.900Z,8.70
2023-03-10T06:11:26.182Z,8.70
2023-03-10T06:13:54.630Z,8.72
2023-03-10T06:16:22.898Z,8.75
2023-03-10T06:18:54.376Z,8.74
2023-03-10T06:21:22.648Z,8.75
2023-03-10T06:23:52.435Z,8.76
2023-03-10T06:26:22.810Z,8.80
2023-03-10T06:28:51.097Z,8.83
2023-03-10T06:31:21.421Z,8.90
2023-03-10T06:33:50.170Z,8.94
2023-03-10T06:36:19.632Z,8.98
2023-03-10T06:38:48.660Z,9.04
2023-03-10T06:41:18.943Z,9.05
2023-03-10T06:43:47.756Z,9.12
2023-03-10T06:46:16.935Z,9.18
2023-03-10T06:48:45.351Z,9.18
2023-03-10T06:51:16.386Z,9.18
2023-03-10T06:53:44.632Z,9.14
2023-03-10T06:56:15.315Z,9.14
2023-03-10T06:58:45.244Z,9.11
2023-03-10T07:01:24.379Z,9.12
2023-03-10T07:03:53.439Z,9.10
2023-03-10T07:06:21.979Z,9.06
2023-03-10T07:08:51.160Z,9.06
2023-03-10T07:11:19.919Z,9.10
2023-03-10T07:13:49.673Z,9.10
2023-03-10T07:16:18.426Z,9.11
2023-03-10T07:18:46.879Z,9.14
2023-03-10T07:21:18.096Z,9.14
2023-03-10T07:23:46.676Z,9.18
2023-03-10T07:26:16.068Z,9.20
2023-03-10T07:28:44.315Z,9.20
2023-03-10T07:31:15.614Z,9.18
2023-03-10T07:33:43.896Z,9.14
2023-03-10T07:36:13.843Z,9.02
2023-03-10T07:38:42.251Z,8.95
2023-03-10T07:41:11.656Z,8.86
2023-03-10T07:43:40.118Z,8.80
2023-03-10T07:46:10.065Z,8.76
2023-03-10T07:48:41.059Z,8.81
2023-03-10T07:51:09.877Z,8.79
2023-03-10T07:53:39.147Z,8.81
2023-03-10T07:56:08.767Z,8.82
2023-03-10T07:58:37.927Z,8.83
2023-03-10T08:01:07.054Z,8.81
2023-03-10T08:03:37.056Z,8.77
2023-03-10T08:06:07.242Z,8.82
2023-03-10T08:08:35.689Z,8.78
2023-03-10T08:11:05.664Z,8.78
2023-03-10T08:13:34.668Z,8.86
2023-03-10T08:16:03.865Z,8.91
2023-03-10T08:18:32.872Z,8.91
2023-03-10T08:21:06.675Z,8.92
2023-03-10T08:23:36.760Z,8.93
2023-03-10T08:26:07.330Z,8.87
2023-03-10T08:28:38.899Z,8.81
2023-03-10T08:31:12.425Z,8.78
2023-03-10T08:33:41.409Z,8.79
2023-03-10T08:36:14.732Z,8.83
2023-03-10T08:38:43.452Z,8.82
2023-03-10T08:41:14.166Z,8.87
2023-03-10T08:43:43.292Z,8.92
2023-03-10T08:46:12.757Z,8.90
2023-03-10T08:48:43.034Z,8.91
2023-03-10T08:51:15.792Z,8.88
2023-03-10T08:53:46.721Z,8.92
2023-03-10T08:56:16.104Z,8.94
2023-03-10T08:58:44.976Z,8.89
2023-03-10T09:01:13.804Z,8.98
2023-03-10T09:03:44.442Z,8.93
2023-03-10T09:06:15.296Z,8.97
2023-03-10T09:08:43.583Z,9.02
2023-03-10T09:11:17.193Z,8.96
2023-03-10T09:13:45.560Z,9.11
2023-03-10T09:16:14.508Z,9.19
2023-03-10T09:18:43.102Z,9.24
2023-03-10T09:21:15.505Z,9.29
2023-03-10T09:23:45.537Z,9.34
2023-03-10T09:26:14.347Z,9.41
2023-03-10T09:28:43.517Z,9.38
2023-03-10T09:31:17.234Z,9.42
2023-03-10T09:33:46.526Z,9.62
2023-03-10T09:36:17.790Z,9.66
2023-03-10T09:38:46.911Z,9.67
2023-03-10T09:41:37.705Z,9.61
2023-03-10T09:44:22.464Z,9.53
2023-03-10T09:47:03.795Z,9.53
2023-03-10T09:49:38.496Z,9.59
2023-03-10T09:52:22.405Z,9.60
2023-03-10T09:54:59.613Z,9.63
2023-03-10T09:57:29.149Z,9.70
2023-03-10T10:00:01.849Z,9.65
2023-03-10T10:02:36.481Z,9.74
2023-03-10T10:05:12.354Z,9.72
2023-03-10T10:07:46.451Z,9.71
2023-03-10T10:10:19.498Z,9.64
2023-03-10T10:12:48.468Z,9.67
2023-03-10T10:15:18.935Z,9.63
2023-03-10T10:18:08.256Z,9.69
2023-03-10T10:20:50.624Z,9.78
2023-03-10T10:23:28.172Z,9.76
2023-03-10T10:25:56.900Z,9.81
2023-03-10T10:28:34.153Z,9.89
2023-03-10T10:31:14.879Z,9.94
2023-03-10T10:33:55.296Z,10.11
2023-03-10T10:36:25.665Z,10.23
2023-03-10T10:38:56.724Z,10.31
2023-03-10T10:41:28.500Z,10.55
2023-03-10T10:44:01.448Z,10.52
2023-03-10T10:46:30.880Z,10.52
2023-03-10T10:49:07.552Z,10.40
2023-03-10T10:51:38.447Z,10.38
2023-03-10T10:54:28.275Z,10.31
2023-03-10T10:56:58.676Z,10.28
2023-03-10T10:59:31.104Z,10.37
2023-03-10T11:02:01.281Z,10.40
2023-03-10T11:04:31.081Z,10.39
2023-03-10T11:07:11.966Z,10.35
2023-03-10T11:09:42.497Z,10.22
2023-03-10T11:12:20.241Z,10.30
2023-03-10T11:15:06.300Z,10.31
2023-03-10T11:17:39.438Z,10.51
2023-03-10T11:20:19.018Z,10.75
2023-03-10T11:22:50.671Z,11.04
2023-03-10T11:25:28.367Z,11.13
2023-03-10T11:28:05.837Z,11.23
2023-03-10T11:30:35.468Z,11.31
2023-03-10T11:33:16.094Z,11.37
2023-03-10T11:35:46.717Z,11.68
2023-03-10T11:38:28.843Z,11.51
2023-03-10T11:41:03.271Z,11.25
2023-03-10T11:43:39.376Z,11.11
2023-03-10T11:46:14.860Z,10.96
2023-03-10T11:48:54.200Z,10.89
2023-03-10T11:51:29.812Z,10.81
2023-03-10T11:53:59.943Z,10.69
2023-03-10T11:56:29.915Z,10.74
2023-03-10T11:59:02.976Z,10.55
2023-03-10T12:01:34.649Z,10.44
2023-03-10T12:04:10.758Z,10.44
2023-03-10T12:06:46.761Z,10.35
2023-03-10T12:09:23.307Z,10.20
2023-03-10T12:11:55.444Z,9.93
2023-03-10T12:14:25.414Z,9.81
2023-03-10T12:16:55.019Z,9.53
2023-03-10T12:19:23.253Z,9.52
2023-03-10T12:22:25.369Z,9.38
2023-03-10T12:24:54.239Z,9.31
2023-03-10T12:27:23.859Z,9.18
2023-03-10T12:29:52.081Z,9.19
2023-03-10T12:32:43.746Z,9.11
2023-03-10T12:35:41.599Z,9.19
2023-03-10T12:38:49.403Z,9.11
2023-03-10T12:41:42.264Z,8.89
2023-03-10T12:44:43.597Z,8.85
2023-03-10T12:47:24.569Z,8.83
2023-03-10T12:49:56.620Z,8.76
2023-03-10T12:52:31.673Z,8.78
2023-03-10T12:55:19.737Z,8.71
2023-03-10T12:58:05.412Z,8.60
2023-03-10T13:00:49.632Z,8.52
2023-03-10T13:03:27.313Z,8.44
2023-03-10T13:06:03.027Z,8.37
2023-03-10T13:08:37.886Z,8.38
2023-03-10T13:11:12.111Z,8.33
2023-03-10T13:13:42.139Z,8.28
2023-03-10T13:16:20.812Z,8.23
2023-03-10T13:18:51.824Z,7.98
2023-03-10T13:21:25.308Z,6.97
2023-03-10T13:23:53.991Z,6.53
2023-03-10T13:26:24.304Z,5.83
2023-03-10T13:28:54.179Z,5.41
2023-03-10T13:31:25.051Z,5.11
2023-03-10T13:33:56.055Z,5.03
2023-03-10T13:36:35.650Z,4.77
2023-03-10T13:39:15.622Z,4.65
2023-03-10T13:41:46.003Z,4.66
2023-03-10T13:44:19.402Z,4.28
2023-03-10T13:46:49.517Z,3.88
2023-03-10T13:49:22.134Z,3.88
2023-03-10T13:51:54.847Z,3.85
2023-03-10T13:54:25.523Z,3.83
2023-03-10T13:56:56.092Z,3.72
2023-03-10T13:59:26.487Z,3.43
2023-03-10T14:01:58.344Z,3.40
2023-03-10T14:04:46.496Z,3.35
2023-03-10T14:07:18.441Z,3.33
2023-03-10T14:09:48.132Z,3.40
2023-03-10T14:12:35.846Z,3.33
2023-03-10T14:15:12.264Z,3.26
2023-03-10T14:17:42.593Z,3.26
2023-03-10T14:20:14.171Z,3.13
2023-03-10T14:22:44.497Z,3.13
2023-03-10T14:25:15.635Z,3.13
2023-03-10T14:27:46.091Z,3.04
2023-03-10T14:30:33.036Z,3.05
2023-03-10T14:33:02.969Z,3.14
2023-03-10T14:35:32.637Z,3.00
2023-03-10T14:38:00.952Z,2.79
2023-03-10T14:40:29.310Z,2.76
2023-03-10T14:43:01.542Z,2.58
2023-03-10T14:45:33.070Z,2.39
2023-03-10T14:48:03.716Z,2.43
2023-03-10T14:50:34.425Z,2.50
2023-03-10T14:53:02.745Z,2.47
2023-03-10T14:55:31.109Z,2.55
2023-03-10T14:58:02.014Z,2.55
2023-03-10T15:00:30.536Z,2.66
2023-03-10T15:02:59.074Z,2.64
2023-03-10T15:05:45.137Z,2.65
2023-03-10T15:08:17.291Z,2.74
2023-03-10T15:10:48.247Z,2.60
2023-03-10T15:13:18.627Z,2.57
2023-03-10T15:15:48.582Z,2.46
2023-03-10T15:18:19.283Z,2.46
2023-03-10T15:20:47.699Z,2.46
2023-03-10T15:23:20.002Z,2.37
2023-03-10T15:25:48.824Z,2.40
2023-03-10T15:28:17.146Z,2.44
2023-03-10T15:30:45.387Z,2.53
2023-03-10T15:33:13.690Z,2.55
2023-03-10T15:35:43.219Z,2.49
2023-03-10T15:38:13.871Z,2.66
2023-03-10T15:40:44.261Z,2.60
2023-03-10T15:43:12.533Z,2.42
2023-03-10T15:45:43.867Z,2.49
2023-03-10T15:48:12.541Z,2.49
2023-03-10T15:50:43.260Z,2.52
2023-03-10T15:53:11.619Z,2.54
2023-03-10T15:55:41.953Z,2.67
2023-03-10T15:58:12.404Z,2.72
2023-03-10T16:00:43.864Z,2.67
2023-03-10T16:03:12.457Z,2.78
2023-03-10T16:05:47.863Z,2.85
2023-03-10T16:08:16.216Z,2.93
2023-03-10T16:10:52.049Z,2.93
2023-03-10T16:13:23.821Z,3.10
2023-03-10T16:15:53.006Z,3.11
2023-03-10T16:18:21.423Z,3.14
2023-03-10T16:20:56.539Z,3.12
2023-03-10T16:23:25.011Z,3.04
2023-03-10T16:26:05.546Z,2.99
2023-03-10T16:28:35.561Z,3.08
2023-03-10T16:31:04.255Z,3.08
2023-03-10T16:33:32.998Z,3.04
2023-03-10T16:36:02.058Z,3.05
2023-03-10T16:38:30.582Z,3.11
2023-03-10T16:40:59.072Z,3.12
2023-03-10T16:43:30.092Z,3.00
2023-03-10T16:46:09.087Z,2.93
2023-03-10T16:48:42.040Z,2.86
2023-03-10T16:51:29.340Z,2.86
2023-03-10T16:54:00.281Z,2.87
2023-03-10T16:56:30.304Z,2.78
2023-03-10T16:58:59.167Z,2.81
2023-03-10T17:01:28.838Z,2.75
2023-03-10T17:03:57.405Z,2.76
2023-03-10T17:06:28.697Z,2.72
2023-03-10T17:08:57.674Z,2.61
2023-03-10T17:11:27.924Z,2.64
2023-03-10T17:13:59.619Z,2.60
2023-03-10T17:16:31.147Z,2.59
2023-03-10T17:19:01.672Z,2.51
2023-03-10T17:21:33.334Z,2.50
2023-03-10T17:24:01.654Z,2.50
2023-03-10T17:26:30.296Z,2.50
2023-03-10T17:28:58.963Z,2.29
2023-03-10T17:31:30.146Z,2.22
2023-03-10T17:34:00.354Z,2.24
2023-03-10T17:36:29.464Z,2.20
2023-03-10T17:38:59.528Z,2.15
2023-03-10T17:41:28.979Z,2.20
2023-03-10T17:43:57.653Z,2.27
2023-03-10T17:46:27.801Z,2.30
2023-03-10T17:48:58.403Z,2.27
2023-03-10T17:51:28.666Z,2.21
2023-03-10T17:53:58.724Z,2.14
2023-03-10T17:56:27.922Z,2.08
2023-03-10T17:58:57.215Z,2.10
2023-03-10T18:01:27.661Z,2.12
2023-03-10T18:03:58.516Z,2.13
2023-03-10T18:06:29.060Z,2.12
2023-03-10T18:08:58.719Z,2.10
2023-03-10T18:11:27.764Z,2.11
2023-03-10T18:13:56.073Z,2.14
2023-03-10T18:16:26.444Z,2.11
2023-03-10T18:18:55.211Z,2.19
2023-03-10T18:21:26.266Z,2.16
2023-03-10T18:23:55.203Z,2.16
2023-03-10T18:26:25.737Z,2.19
2023-03-10T18:28:54.023Z,2.22
2023-03-10T18:31:24.128Z,2.25
2023-03-10T18:33:52.661Z,2.25
2023-03-10T18:36:23.279Z,2.34
2023-03-10T18:38:53.520Z,2.38
2023-03-10T18:41:23.524Z,2.37
2023-03-10T18:43:52.136Z,2.38
2023-03-10T18:46:20.744Z,2.42
2023-03-10T18:48:55.521Z,2.43
2023-03-10T18:51:25.322Z,2.41
2023-03-10T18:53:55.478Z,2.42
2023-03-10T18:56:25.861Z,2.38
2023-03-10T18:58:54.530Z,2.37
2023-03-10T19:01:23.107Z,2.27
2023-03-10T19:03:51.442Z,2.30
2023-03-10T19:06:20.205Z,2.19
2023-03-10T19:08:48.513Z,2.11
2023-03-10T19:11:18.305Z,2.06
2023-03-10T19:13:46.609Z,1.93
2023-03-10T19:16:15.006Z,1.85
2023-03-10T19:18:44.100Z,1.84
2023-03-10T19:21:13.064Z,1.78
2023-03-10T19:23:43.960Z,1.73
2023-03-10T19:26:13.481Z,1.73
2023-03-10T19:28:44.482Z,1.70
2023-03-10T19:31:14.804Z,1.71
2023-03-10T19:33:43.662Z,1.76
2023-03-10T19:36:13.712Z,1.84
2023-03-10T19:38:44.375Z,1.84
2023-03-10T19:41:15.050Z,1.84
2023-03-10T19:43:49.035Z,1.80
2023-03-10T19:46:17.914Z,1.75
2023-03-10T19:48:46.389Z,1.64
2023-03-10T19:51:21.305Z,1.60
2023-03-10T19:53:51.113Z,1.56
2023-03-10T19:56:20.631Z,1.51
2023-03-10T19:58:51.233Z,1.50
2023-03-10T20:01:24.316Z,1.54
2023-03-10T20:04:12.074Z,1.64
2023-03-10T20:07:00.836Z,1.70
2023-03-10T20:09:29.115Z,1.79
2023-03-10T20:11:57.824Z,1.86
2023-03-10T20:14:27.476Z,1.90
2023-03-10T20:16:55.898Z,1.97
2023-03-10T20:19:24.197Z,1.97
2023-03-10T20:21:52.515Z,1.94
2023-03-10T20:24:20.755Z,1.98
2023-03-10T20:26:50.328Z,1.88
2023-03-10T20:29:19.328Z,1.93
2023-03-10T20:31:49.025Z,1.96
2023-03-10T20:34:21.611Z,2.00
2023-03-10T20:36:50.162Z,1.97
2023-03-10T20:39:18.491Z,1.98
2023-03-10T20:41:47.710Z,1.94
2023-03-10T20:44:16.230Z,1.97
2023-03-10T20:46:45.421Z,1.98
2023-03-10T20:49:15.182Z,2.00
2023-03-10T20:51:43.774Z,1.96
2023-03-10T20:54:12.007Z,1.91
2023-03-10T20:56:40.790Z,1.96
2023-03-10T20:59:09.119Z,1.96
2023-03-10T21:01:39.843Z,1.98
2023-03-10T21:04:08.292Z,1.95
2023-03-10T21:06:38.050Z,1.91
2023-03-10T21:09:06.875Z,1.93
2023-03-10T21:11:35.758Z,1.88
2023-03-10T21:14:04.039Z,1.93
2023-03-10T21:16:32.335Z,1.92
2023-03-10T21:19:00.653Z,1.81
2023-03-10T21:21:31.607Z,1.66
2023-03-10T21:24:01.585Z,1.54
2023-03-10T21:26:29.927Z,1.43
2023-03-10T21:29:00.100Z,1.40
2023-03-10T21:31:28.481Z,1.26
2023-03-10T21:33:56.755Z,1.20
2023-03-10T21:36:25.753Z,1.14
2023-03-10T21:38:54.042Z,1.09
2023-03-10T21:41:25.356Z,1.05
2023-03-10T21:43:54.772Z,1.18
2023-03-10T21:46:23.548Z,1.19
2023-03-10T21:48:52.308Z,1.31
2023-03-10T21:51:23.047Z,1.43
2023-03-10T21:53:52.007Z,1.50
2023-03-10T21:56:22.194Z,1.64
2023-03-10T21:58:51.813Z,1.72
2023-03-10T22:01:20.380Z,1.82
2023-03-10T22:03:49.103Z,1.84
2023-03-10T22:06:17.430Z,1.84
2023-03-10T22:08:45.648Z,1.75
2023-03-10T22:11:14.640Z,1.61
2023-03-10T22:13:43.377Z,1.53
2023-03-10T22:16:17.746Z,1.43
2023-03-10T22:18:46.605Z,1.38
2023-03-10T22:21:14.849Z,1.31
2023-03-10T22:23:43.904Z,1.17
2023-03-10T22:26:12.229Z,1.14
2023-03-10T22:28:41.102Z,1.11
2023-03-10T22:31:10.240Z,1.19
2023-03-10T22:33:46.756Z,1.21
2023-03-10T22:36:15.117Z,1.31
2023-03-10T22:38:43.380Z,1.33
2023-03-10T22:41:12.962Z,1.36
2023-03-10T22:43:42.291Z,1.39
2023-03-10T22:46:12.040Z,1.45
2023-03-10T22:48:41.361Z,1.40
2023-03-10T22:51:13.501Z,1.40
2023-03-10T22:53:42.017Z,1.36
2023-03-10T22:56:10.396Z,1.34
2023-03-10T22:58:39.388Z,1.18
2023-03-10T23:01:07.735Z,1.08
2023-03-10T23:03:36.422Z,0.95
2023-03-10T23:06:06.105Z,0.86
2023-03-10T23:08:37.513Z,0.79
2023-03-10T23:11:10.447Z,0.69
2023-03-10T23:13:39.645Z,0.63
2023-03-10T23:16:09.098Z,0.59
2023-03-10T23:18:37.964Z,0.48
2023-03-10T23:21:07.145Z,0.43
2023-03-10T23:23:36.789Z,0.42
2023-03-10T23:26:05.322Z,0.43
2023-03-10T23:28:33.594Z,0.45
2023-03-10T23:31:01.903Z,0.49
2023-03-10T23:33:30.197Z,0.54
2023-03-10T23:35:58.471Z,0.57
2023-03-10T23:38:27.905Z,0.55
2023-03-10T23:40:57.557Z,0.50
2023-03-10T23:43:25.844Z,0.43
2023-03-10T23:45:54.179Z,0.40
2023-03-10T23:48:24.674Z,0.44
2023-03-10T23:50:53.037Z,0.46
2023-03-10T23:53:21.826Z,0.33
2023-03-10T23:55:50.417Z,0.23
2023-03-10T23:58:21.224Z,0.20
